createdAt,value
2022-10-30T00:00:43.859Z,99171.42
2022-10-30T00:11:18.945Z,99173.00
2022-10-30T00:21:46.357Z,99181.88
2022-10-30T00:32:13.839Z,99175.63
2022-10-30T00:42:41.325Z,99181.29
2022-10-30T00:53:12.135Z,99183.27
2022-10-30T01:03:40.529Z,99176.98
2022-10-30T01:14:11.315Z,99157.66
2022-10-30T01:24:53.196Z,99163.25
2022-10-30T01:35:25.271Z,99167.61
2022-10-30T01:46:10.723Z,99159.77
2022-10-30T01:56:46.204Z,99152.61
2022-10-30T02:07:14.730Z,99166.06
2022-10-30T02:17:42.754Z,99178.02
2022-10-30T02:28:10.601Z,99157.98
2022-10-30T02:38:38.497Z,99155.48
2022-10-30T02:49:06.522Z,99145.94
2022-10-30T02:59:34.489Z,99135.04
2022-10-30T03:10:02.405Z,99140.00
2022-10-30T03:20:30.388Z,99150.66
2022-10-30T03:31:03.587Z,99158.67
2022-10-30T03:41:31.758Z,99171.71
2022-10-30T03:51:59.129Z,99173.30
2022-10-30T04:02:26.447Z,99164.19
2022-10-30T04:12:54.992Z,99150.63
2022-10-30T04:23:23.279Z,99154.30
2022-10-30T04:33:51.093Z,99156.02
2022-10-30T04:44:18.402Z,99151.52
2022-10-30T04:54:45.704Z,99159.64
2022-10-30T05:05:13.181Z,99159.41
2022-10-30T05:15:40.829Z,99152.47
2022-10-30T05:26:08.248Z,99151.46
2022-10-30T05:36:35.497Z,99157.91
2022-10-30T05:47:02.763Z,99167.69
2022-10-30T05:57:33.299Z,99161.74
2022-10-30T06:08:00.569Z,99160.73
2022-10-30T06:18:27.815Z,99172.11
2022-10-30T06:28:55.160Z,99175.44
2022-10-30T06:39:22.638Z,99174.72
2022-10-30T06:49:49.905Z,99180.58
2022-10-30T07:00:17.982Z,99175.86
2022-10-30T07:10:45.451Z,99176.02
2022-10-30T07:21:12.875Z,99178.42
2022-10-30T07:31:49.558Z,99184.19
2022-10-30T07:42:17.341Z,99178.79
2022-10-30T07:52:44.721Z,99173.33
2022-10-30T08:03:13.652Z,99165.52
2022-10-30T08:13:41.166Z,99159.33
2022-10-30T08:24:09.377Z,99153.74
2022-10-30T08:34:36.628Z,99151.18
2022-10-30T08:45:03.992Z,99145.90
2022-10-30T08:55:31.469Z,99142.29
2022-10-30T09:06:01.287Z,99135.48
2022-10-30T09:16:28.681Z,99137.39
2022-10-30T09:26:57.625Z,99127.27
2022-10-30T09:37:25.150Z,99120.98
2022-10-30T09:47:57.923Z,99122.27
2022-10-30T09:58:35.472Z,99123.45
2022-10-30T10:09:09.165Z,99120.18
2022-10-30T10:19:42.816Z,99112.87
2022-10-30T10:30:16.828Z,99115.45
2022-10-30T10:40:55.359Z,99103.04
2022-10-30T10:51:28.060Z,99099.30
2022-10-30T11:02:01.506Z,99092.44
2022-10-30T11:12:33.868Z,99081.35
2022-10-30T11:23:03.744Z,99072.59
2022-10-30T11:33:31.614Z,99068.19
2022-10-30T11:43:59.142Z,99057.91
2022-10-30T11:54:27.714Z,99050.83
2022-10-30T12:04:55.812Z,99056.19
2022-10-30T12:15:26.657Z,99051.89
2022-10-30T12:25:56.817Z,99046.30
2022-10-30T12:36:28.554Z,99044.94
2022-10-30T12:47:02.321Z,99044.73
2022-10-30T12:57:34.372Z,99038.05
2022-10-30T13:08:18.772Z,99034.45
2022-10-30T13:18:46.168Z,99025.30
2022-10-30T13:29:23.186Z,99022.87
2022-10-30T13:40:02.997Z,99013.06
2022-10-30T13:50:46.680Z,99017.55
2022-10-30T14:01:24.095Z,99020.80
2022-10-30T14:11:53.757Z,99025.19
2022-10-30T14:22:26.693Z,99022.38
2022-10-30T14:32:54.683Z,99021.36
2022-10-30T14:43:31.940Z,99028.08
2022-10-30T14:54:07.583Z,99019.25
2022-10-30T15:04:46.779Z,99012.19
2022-10-30T15:15:18.678Z,99008.96
2022-10-30T15:25:51.633Z,99002.55
2022-10-30T15:36:22.063Z,99001.03
2022-10-30T15:46:51.928Z,99004.98
2022-10-30T16:08:16.684Z,99006.02
2022-10-30T16:18:44.911Z,99001.98
2022-10-30T16:29:24.293Z,99001.35
2022-10-30T16:39:54.265Z,98996.95
2022-10-30T16:50:22.607Z,98999.33
2022-10-30T17:00:55.784Z,98989.98
2022-10-30T17:11:37.089Z,98994.63
2022-10-30T17:22:11.216Z,98993.39
2022-10-30T17:32:46.815Z,98991.61
2022-10-30T17:43:15.779Z,98993.27
2022-10-30T17:53:43.507Z,98995.73
2022-10-30T18:04:17.893Z,98995.34
2022-10-30T18:14:48.269Z,98994.88
2022-10-30T18:25:21.859Z,98994.88
2022-10-30T18:35:49.380Z,98996.33
2022-10-30T18:46:17.595Z,98999.27
2022-10-30T18:56:45.116Z,98997.88
2022-10-30T19:07:10.999Z,99002.99
2022-10-30T19:17:38.370Z,99004.45
2022-10-30T19:28:06.020Z,99007.33
2022-10-30T19:38:34.006Z,99017.36
2022-10-30T19:49:01.374Z,99029.57
2022-10-30T19:59:28.986Z,99034.55
2022-10-30T20:09:56.354Z,99040.13
2022-10-30T20:20:26.403Z,99049.19
2022-10-30T20:30:54.223Z,99052.16
2022-10-30T20:41:23.845Z,99055.08
2022-10-30T20:51:51.044Z,99050.80
2022-10-30T21:02:18.404Z,99044.56
2022-10-30T21:12:45.857Z,99049.82
2022-10-30T21:23:13.734Z,99047.11
2022-10-30T21:33:39.844Z,99044.38
2022-10-30T21:44:07.517Z,99041.08
2022-10-30T21:54:34.943Z,99037.30
2022-10-30T22:05:02.341Z,99026.05
2022-10-30T22:15:29.718Z,99023.09
2022-10-30T22:26:01.365Z,99023.58
2022-10-30T22:36:30.948Z,99021.56
2022-10-30T22:46:58.314Z,99022.99
2022-10-30T22:57:25.698Z,99024.48
2022-10-30T23:07:54.596Z,99014.73
2022-10-30T23:18:21.963Z,99019.38
2022-10-30T23:28:50.812Z,99028.16
2022-10-30T23:39:19.748Z,99034.45
2022-10-30T23:49:47.202Z,99033.73
